NCAR-RAP Real-Time Weather Data

Output produced by METARs form (10 April 2020  07:16 UTC)
found at http://weather.rap.ucar.edu/surface/
 
KMAF 100653Z AUTO 10006KT 10SM CLR 14/11 A3006 RMK AO2 SLP144 T01390106
KMAF 100553Z AUTO 07007KT 10SM CLR 14/10 A3004 RMK AO2 SLP138 T01390100 10233 20139 402670139 51015
KMAF 100453Z 07007KT 10SM CLR 16/11 A3004 RMK AO2 SLP135 T01560106
KMAF 100353Z 09008KT 10SM CLR 17/11 A3002 RMK AO2 SLP128 T01720106
KMAF 100253Z 10005KT 10SM CLR 17/11 A3000 RMK AO2 SLP122 T01720106 53017
KMAF 100153Z 09005KT 10SM FEW100 18/11 A2998 RMK AO2 SLP115 T01830106
KMAF 100053Z 10005KT 10SM CLR 21/11 A2995 RMK AO2 SLP107 T02110106
KMAF 092353Z 10007KT 10SM CLR 23/11 A2994 RMK AO2 SLP103 60000 T02330111 10267 20189 55008
KMAF 092253Z 08011KT 10SM SCT080 23/12 A2994 RMK AO2 RAE06 SLP101 P0000 T02280122
KMAF 092153Z 04012KT 9SM -RA BKN070 OVC085 19/14 A2997 RMK AO2 RAE14B36 SLP113 P0000 T01940144
KMAF 092053Z 29007KT 8SM -RA OVC080 21/12 A2997 RMK AO2 RAB15 SLP112 P0000 60000 T02110117 55009
KMAF 091953Z 22011KT 10SM SCT080 OVC100 26/07 A2995 RMK AO2 SLP101 T02560067
KMAF 091853Z 18008KT 10SM FEW070 BKN085 26/07 A2997 RMK AO2 SLP106 T02610067
KMAF 091753Z 19011KT 10SM OVC090 26/07 A3000 RMK AO2 SLP118 60000 T02560072 10261 20167 58005
KMAF 091653Z 25011KT 10SM SCT065 OVC085 26/08 A3002 RMK AO2 RAB27E51 SLP123 P0000 T02560083
KMAF 091553Z 23004KT 10SM SCT085 OVC110 26/09 A3000 RMK AO2 SLP118 T02560089
KMAF 091453Z 26004KT 10SM FEW070 OVC090 21/06 A3001 RMK AO2 SLP122 T02110061 50012
KMAF 091353Z 18005KT 10SM OVC110 20/05 A3002 RMK AO2 SLP125 T02000050
KMAF 091253Z 00000KT 10SM BKN110 18/06 A3000 RMK AO2 SLP118 T01780056
KMAF 091153Z 13007KT 10SM CLR 17/07 A2997 RMK AO2 SLP108 T01670072 10200 20167 53007
KMAF 091053Z AUTO 00000KT 10SM CLR 18/06 A2995 RMK AO2 SLP097 T01780056
KMAF 090953Z AUTO 02003KT 10SM CLR 19/03 A2994 RMK AO2 SLP093 T01890033
KMAF 090853Z AUTO 31003KT 10SM CLR 19/04 A2995 RMK AO2 SLP097 T01890039 56016